»·PEaware :: ASA2144 KSEA-KPUW

ASA2144 :: KSEA-KPUW

FLIGHT INFORMATION

Flight Status: Arrived
Operator:
Alaska Airlines
More flights by this operator :: More flights under this callsign
Pilot: Daan L. (20182)
Aircraft: BOEING 737-800
(B738)
More flights by this aircraft type
Origin: KSEA Seattle-Tacoma Intl
United States
Destination: KPUW Pullman/Moscow Regl
United States
More flights between these airports :: More routes between these airports
Route: +SEA7 NORMY J90 MWH PUW
File this flight plan on PilotEdge
Remarks:
Altitude:
(Current/Filed)
21,000ft
Speed:
(Current/Filed)
408kts
Departed: 26-Aug-19 10:44 AM
Arrived: 26-Aug-19 11:33 AM
Distance/Time
Traveled:
216nm/0:48
Distance/Time
To Go:
Arrived

Flight Plot

Page will automatically refresh every two minutes.

Flight plan parsing failed; only flown route is shown


Map Options




Map Legend


Flown Route
Filed Route
Departure Airport
Arrival Airport
Navaid (VOR, NDB)
Fix

Horizontal Profiles

Position Reports

Time Latitude Longitude Heading Altitude Ground
Speed
26-Aug-19 10:20 47.446009 -122.304791 90 477ft 0kts
26-Aug-19 10:21 47.446009 -122.304791 90 477ft 0kts
26-Aug-19 10:22 47.446009 -122.304791 90 477ft 0kts
26-Aug-19 10:23 47.446009 -122.304791 90 477ft 0kts
26-Aug-19 10:24 47.446009 -122.304791 90 477ft 0kts
26-Aug-19 10:25 47.446009 -122.304790 90 477ft 0kts
26-Aug-19 10:26 47.446009 -122.304790 90 477ft 0kts
26-Aug-19 10:27 47.446009 -122.304790 90 477ft 0kts
26-Aug-19 10:28 47.446009 -122.304790 90 477ft 0kts
26-Aug-19 10:29 47.446009 -122.304790 90 477ft 0kts
26-Aug-19 10:30 47.446009 -122.304790 90 477ft 0kts
26-Aug-19 10:30 47.446009 -122.304790 90 477ft 0kts
26-Aug-19 10:32 47.446009 -122.304790 90 477ft 0kts
26-Aug-19 10:32 47.446009 -122.304791 90 477ft 0kts
26-Aug-19 10:33 47.446005 -122.305291 103 477ft 1kts
26-Aug-19 10:35 47.446195 -122.305437 180 477ft 0kts
26-Aug-19 10:35 47.446195 -122.305437 180 477ft 0kts
26-Aug-19 10:36 47.445902 -122.305421 178 477ft 5kts
26-Aug-19 10:38 47.444071 -122.305447 181 477ft 0kts
26-Aug-19 10:38 47.442628 -122.306388 185 477ft 18kts
26-Aug-19 10:39 47.436221 -122.306113 153 477ft 18kts
26-Aug-19 10:40 47.432033 -122.306114 219 477ft 10kts
26-Aug-19 10:41 47.431898 -122.306305 224 477ft 0kts
26-Aug-19 10:42 47.431838 -122.306396 230 477ft 0kts
26-Aug-19 10:43 47.434381 -122.308035 0 477ft 67kts
26-Aug-19 10:44 47.475016 -122.305080 1 1925ft 182kts
26-Aug-19 10:45 47.533872 -122.299706 0 4604ft 252kts
26-Aug-19 10:46 47.605750 -122.295010 1 8740ft 272kts
26-Aug-19 10:47 47.663293 -122.217683 84 11546ft 342kts
26-Aug-19 10:48 47.617534 -122.090993 126 15208ft 375kts
26-Aug-19 10:49 47.554550 -121.966501 126 18629ft 400kts
26-Aug-19 10:50 47.487538 -121.834724 126 21271ft 431kts
26-Aug-19 10:51 47.432056 -121.682220 96 21311ft 458kts
26-Aug-19 10:52 47.426569 -121.498364 87 21293ft 457kts
26-Aug-19 10:53 47.423975 -121.316545 88 21292ft 458kts
26-Aug-19 10:54 47.423134 -121.262018 88 21291ft 458kts
26-Aug-19 10:55 47.420536 -121.105126 88 21292ft 458kts
26-Aug-19 10:56 47.417723 -120.948818 89 21266ft 458kts
26-Aug-19 10:57 47.415565 -120.835910 89 21266ft 458kts
26-Aug-19 10:58 47.411890 -120.655806 89 21265ft 458kts
26-Aug-19 10:59 47.407926 -120.475454 89 21259ft 457kts
26-Aug-19 11:00 47.391208 -120.330665 103 21256ft 460kts
26-Aug-19 11:01 47.365557 -120.184021 103 21255ft 460kts
26-Aug-19 11:02 47.334222 -120.004230 103 21256ft 460kts
26-Aug-19 11:03 47.325255 -119.953131 103 21255ft 460kts
26-Aug-19 11:04 47.302622 -119.824794 103 21246ft 462kts
26-Aug-19 11:05 47.270238 -119.642748 103 21240ft 462kts
26-Aug-19 11:06 47.237689 -119.461601 103 21241ft 462kts
26-Aug-19 11:07 47.211756 -119.319606 106 21236ft 463kts
26-Aug-19 11:08 47.177205 -119.179364 109 21238ft 463kts
26-Aug-19 11:09 47.132891 -118.999858 109 21239ft 464kts
26-Aug-19 11:10 47.088391 -118.820896 108 21240ft 469kts
26-Aug-19 11:11 47.053802 -118.682780 108 21241ft 470kts
26-Aug-19 11:12 47.007426 -118.503981 109 21244ft 470kts
26-Aug-19 11:13 46.965067 -118.347040 110 21255ft 467kts
26-Aug-19 11:14 46.923316 -118.193098 109 21252ft 465kts
26-Aug-19 11:15 46.877839 -118.026654 109 19258ft 446kts
26-Aug-19 11:16 46.833102 -117.864121 109 16669ft 426kts
26-Aug-19 11:17 46.790019 -117.708637 110 14072ft 406kts
26-Aug-19 11:18 46.748272 -117.558892 110 11449ft 388kts
26-Aug-19 11:19 46.709042 -117.419039 110 9990ft 337kts
26-Aug-19 11:20 46.677191 -117.306117 111 9987ft 272kts
26-Aug-19 11:21 46.649401 -117.207759 111 9980ft 268kts
26-Aug-19 11:22 46.621315 -117.108756 111 9422ft 265kts
26-Aug-19 11:23 46.593901 -117.012574 111 9173ft 248kts
26-Aug-19 11:24 46.567706 -116.921020 110 9167ft 243kts
26-Aug-19 11:25 46.573063 -116.834751 34 8382ft 233kts
26-Aug-19 11:26 46.633078 -116.801551 12 6799ft 236kts
26-Aug-19 11:27 46.696889 -116.812352 327 5206ft 236kts
26-Aug-19 11:28 46.732924 -116.877580 295 5003ft 185kts
26-Aug-19 11:29 46.753428 -116.942506 287 4996ft 171kts
26-Aug-19 11:30 46.753693 -117.009231 265 4063ft 144kts
26-Aug-19 11:31 46.750376 -117.066882 266 3229ft 142kts
26-Aug-19 11:32 46.743316 -117.111630 250 2530ft 40kts
26-Aug-19 11:33 46.743075 -117.114916 64 2535ft 5kts
26-Aug-19 11:34 46.743611 -117.114457 38 2537ft 0kts
26-Aug-19 11:35 46.743611 -117.114457 38 2537ft 0kts

Navigation Log

Ident Type
Flight plan parsing failed, navigation log unavailable